sensor_id;sensor_type;location;lat;lon;timestamp;temperature;humidity
65038;DHT22;51605;47.040;15.294;2022-11-20T00:01:04;22.30;57.70
65038;DHT22;51605;47.040;15.294;2022-11-20T00:03:29;22.40;57.80
65038;DHT22;51605;47.040;15.294;2022-11-20T00:05:59;22.30;57.70
65038;DHT22;51605;47.040;15.294;2022-11-20T00:08:24;22.30;57.70
65038;DHT22;51605;47.040;15.294;2022-11-20T00:10:50;22.30;57.60
65038;DHT22;51605;47.040;15.294;2022-11-20T00:13:15;22.30;57.70
65038;DHT22;51605;47.040;15.294;2022-11-20T00:15:41;22.30;57.60
65038;DHT22;51605;47.040;15.294;2022-11-20T00:18:06;22.30;57.60
65038;DHT22;51605;47.040;15.294;2022-11-20T00:20:32;22.30;57.60
65038;DHT22;51605;47.040;15.294;2022-11-20T00:22:57;22.40;57.70
65038;DHT22;51605;47.040;15.294;2022-11-20T00:25:23;22.30;57.60
65038;DHT22;51605;47.040;15.294;2022-11-20T00:27:48;22.30;57.60
65038;DHT22;51605;47.040;15.294;2022-11-20T00:30:14;22.30;57.60
65038;DHT22;51605;47.040;15.294;2022-11-20T00:32:39;22.30;57.60
65038;DHT22;51605;47.040;15.294;2022-11-20T00:35:05;22.30;57.60
65038;DHT22;51605;47.040;15.294;2022-11-20T00:37:30;22.30;57.60
65038;DHT22;51605;47.040;15.294;2022-11-20T00:39:56;22.30;57.60
65038;DHT22;51605;47.040;15.294;2022-11-20T00:42:21;22.30;57.50
65038;DHT22;51605;47.040;15.294;2022-11-20T00:44:47;22.30;57.50
65038;DHT22;51605;47.040;15.294;2022-11-20T00:47:12;22.40;57.60
65038;DHT22;51605;47.040;15.294;2022-11-20T00:49:38;22.40;57.50
65038;DHT22;51605;47.040;15.294;2022-11-20T00:52:03;22.40;57.50
65038;DHT22;51605;47.040;15.294;2022-11-20T00:54:29;22.40;57.50
65038;DHT22;51605;47.040;15.294;2022-11-20T00:56:54;22.30;57.50
65038;DHT22;51605;47.040;15.294;2022-11-20T00:59:20;22.40;57.50
65038;DHT22;51605;47.040;15.294;2022-11-20T01:01:45;22.40;57.50
65038;DHT22;51605;47.040;15.294;2022-11-20T01:04:11;22.30;57.50
65038;DHT22;51605;47.040;15.294;2022-11-20T01:06:38;22.30;57.50
65038;DHT22;51605;47.040;15.294;2022-11-20T01:09:04;22.30;57.50
65038;DHT22;51605;47.040;15.294;2022-11-20T01:11:31;22.30;57.50
65038;DHT22;51605;47.040;15.294;2022-11-20T01:13:57;22.30;57.50
65038;DHT22;51605;47.040;15.294;2022-11-20T01:16:28;22.30;57.50
65038;DHT22;51605;47.040;15.294;2022-11-20T01:18:54;22.30;57.50
65038;DHT22;51605;47.040;15.294;2022-11-20T01:21:27;22.30;57.50
65038;DHT22;51605;47.040;15.294;2022-11-20T01:23:53;22.30;57.50
65038;DHT22;51605;47.040;15.294;2022-11-20T01:26:20;22.30;57.50
65038;DHT22;51605;47.040;15.294;2022-11-20T01:28:46;22.30;57.50
65038;DHT22;51605;47.040;15.294;2022-11-20T01:31:13;22.30;57.50
65038;DHT22;51605;47.040;15.294;2022-11-20T01:33:39;22.30;57.40
65038;DHT22;51605;47.040;15.294;2022-11-20T01:36:05;22.30;57.40
65038;DHT22;51605;47.040;15.294;2022-11-20T01:38:31;22.30;57.50
65038;DHT22;51605;47.040;15.294;2022-11-20T01:40:56;22.30;57.40
65038;DHT22;51605;47.040;15.294;2022-11-20T01:43:22;22.30;57.50
65038;DHT22;51605;47.040;15.294;2022-11-20T01:46:01;22.30;57.40
65038;DHT22;51605;47.040;15.294;2022-11-20T01:48:36;22.30;57.50
65038;DHT22;51605;47.040;15.294;2022-11-20T01:51:03;22.30;57.50
65038;DHT22;51605;47.040;15.294;2022-11-20T01:53:31;22.30;57.50
65038;DHT22;51605;47.040;15.294;2022-11-20T01:55:57;22.30;57.50
65038;DHT22;51605;47.040;15.294;2022-11-20T01:58:25;22.30;57.50
65038;DHT22;51605;47.040;15.294;2022-11-20T02:00:52;22.30;57.50
65038;DHT22;51605;47.040;15.294;2022-11-20T02:03:18;22.30;57.50
65038;DHT22;51605;47.040;15.294;2022-11-20T02:08:33;22.30;57.60
65038;DHT22;51605;47.040;15.294;2022-11-20T02:10:59;22.30;57.60
65038;DHT22;51605;47.040;15.294;2022-11-20T02:13:24;22.20;57.60
65038;DHT22;51605;47.040;15.294;2022-11-20T02:16:09;22.20;57.60
65038;DHT22;51605;47.040;15.294;2022-11-20T02:18:35;22.20;57.60
65038;DHT22;51605;47.040;15.294;2022-11-20T02:21:03;22.20;58.00
65038;DHT22;51605;47.040;15.294;2022-11-20T02:23:36;22.20;57.60
65038;DHT22;51605;47.040;15.294;2022-11-20T02:26:03;22.20;57.70
65038;DHT22;51605;47.040;15.294;2022-11-20T02:28:31;22.20;57.60
65038;DHT22;51605;47.040;15.294;2022-11-20T02:30:56;22.20;57.70
65038;DHT22;51605;47.040;15.294;2022-11-20T02:33:22;22.20;57.60
65038;DHT22;51605;47.040;15.294;2022-11-20T02:35:47;22.20;57.70
65038;DHT22;51605;47.040;15.294;2022-11-20T02:38:13;22.20;57.70
65038;DHT22;51605;47.040;15.294;2022-11-20T02:40:39;22.20;57.70
65038;DHT22;51605;47.040;15.294;2022-11-20T02:43:05;22.20;57.60
65038;DHT22;51605;47.040;15.294;2022-11-20T02:45:30;22.20;57.60
65038;DHT22;51605;47.040;15.294;2022-11-20T02:47:56;22.20;57.60
65038;DHT22;51605;47.040;15.294;2022-11-20T02:50:22;22.20;57.50
65038;DHT22;51605;47.040;15.294;2022-11-20T02:52:47;22.30;57.50
65038;DHT22;51605;47.040;15.294;2022-11-20T02:55:13;22.20;57.50
65038;DHT22;51605;47.040;15.294;2022-11-20T02:57:38;22.20;58.50
65038;DHT22;51605;47.040;15.294;2022-11-20T03:00:04;22.30;57.50
65038;DHT22;51605;47.040;15.294;2022-11-20T03:02:32;22.30;57.50
65038;DHT22;51605;47.040;15.294;2022-11-20T03:04:58;22.30;57.50
65038;DHT22;51605;47.040;15.294;2022-11-20T03:07:23;22.20;57.40
65038;DHT22;51605;47.040;15.294;2022-11-20T03:09:49;22.30;57.50
65038;DHT22;51605;47.040;15.294;2022-11-20T03:12:15;22.30;57.50
65038;DHT22;51605;47.040;15.294;2022-11-20T03:14:40;22.30;57.40
65038;DHT22;51605;47.040;15.294;2022-11-20T03:17:06;22.30;57.30
65038;DHT22;51605;47.040;15.294;2022-11-20T03:19:31;22.30;57.30
65038;DHT22;51605;47.040;15.294;2022-11-20T03:21:57;22.30;57.10
65038;DHT22;51605;47.040;15.294;2022-11-20T03:24:22;22.30;57.10
65038;DHT22;51605;47.040;15.294;2022-11-20T03:26:48;22.30;57.00
65038;DHT22;51605;47.040;15.294;2022-11-20T03:29:13;22.30;56.90
65038;DHT22;51605;47.040;15.294;2022-11-20T03:31:39;22.30;56.90
65038;DHT22;51605;47.040;15.294;2022-11-20T03:34:05;22.30;56.90
65038;DHT22;51605;47.040;15.294;2022-11-20T03:36:32;22.30;56.90
65038;DHT22;51605;47.040;15.294;2022-11-20T03:38:58;22.30;56.90
65038;DHT22;51605;47.040;15.294;2022-11-20T03:41:24;22.30;56.90
65038;DHT22;51605;47.040;15.294;2022-11-20T03:43:51;22.20;56.90
65038;DHT22;51605;47.040;15.294;2022-11-20T03:46:17;22.30;56.70
65038;DHT22;51605;47.040;15.294;2022-11-20T03:48:43;22.30;56.80
65038;DHT22;51605;47.040;15.294;2022-11-20T03:51:12;22.30;56.80
65038;DHT22;51605;47.040;15.294;2022-11-20T03:53:38;22.20;56.70
65038;DHT22;51605;47.040;15.294;2022-11-20T03:56:04;22.30;56.70
65038;DHT22;51605;47.040;15.294;2022-11-20T03:58:30;22.30;56.70
65038;DHT22;51605;47.040;15.294;2022-11-20T04:00:56;22.20;56.60
65038;DHT22;51605;47.040;15.294;2022-11-20T04:03:21;22.20;56.60
65038;DHT22;51605;47.040;15.294;2022-11-20T04:05:47;22.30;56.70
65038;DHT22;51605;47.040;15.294;2022-11-20T04:08:12;22.30;56.60
65038;DHT22;51605;47.040;15.294;2022-11-20T04:10:37;22.20;56.60
65038;DHT22;51605;47.040;15.294;2022-11-20T04:13:03;22.20;56.60
65038;DHT22;51605;47.040;15.294;2022-11-20T04:15:28;22.20;56.60
65038;DHT22;51605;47.040;15.294;2022-11-20T04:17:54;22.20;56.60
65038;DHT22;51605;47.040;15.294;2022-11-20T04:20:20;22.20;56.50
65038;DHT22;51605;47.040;15.294;2022-11-20T04:22:45;22.20;56.60
65038;DHT22;51605;47.040;15.294;2022-11-20T04:25:11;22.20;56.40
65038;DHT22;51605;47.040;15.294;2022-11-20T04:27:36;22.30;56.40
65038;DHT22;51605;47.040;15.294;2022-11-20T04:30:02;22.30;56.40
65038;DHT22;51605;47.040;15.294;2022-11-20T04:32:27;22.30;56.40
65038;DHT22;51605;47.040;15.294;2022-11-20T04:34:53;22.30;57.30
65038;DHT22;51605;47.040;15.294;2022-11-20T04:37:18;22.30;56.40
65038;DHT22;51605;47.040;15.294;2022-11-20T04:39:44;22.30;56.50
65038;DHT22;51605;47.040;15.294;2022-11-20T04:42:09;22.30;56.40
65038;DHT22;51605;47.040;15.294;2022-11-20T04:44:53;22.30;56.50
65038;DHT22;51605;47.040;15.294;2022-11-20T04:47:19;22.20;56.40
65038;DHT22;51605;47.040;15.294;2022-11-20T04:49:44;22.20;56.50
65038;DHT22;51605;47.040;15.294;2022-11-20T04:52:10;22.20;56.40
65038;DHT22;51605;47.040;15.294;2022-11-20T04:54:35;22.20;56.40
65038;DHT22;51605;47.040;15.294;2022-11-20T04:57:01;22.20;56.40
65038;DHT22;51605;47.040;15.294;2022-11-20T04:59:26;22.20;56.40
65038;DHT22;51605;47.040;15.294;2022-11-20T05:01:52;22.20;56.30
65038;DHT22;51605;47.040;15.294;2022-11-20T05:04:17;22.20;56.40
65038;DHT22;51605;47.040;15.294;2022-11-20T05:06:43;22.20;56.30
65038;DHT22;51605;47.040;15.294;2022-11-20T05:09:08;22.20;56.40
65038;DHT22;51605;47.040;15.294;2022-11-20T05:11:34;22.20;56.30
65038;DHT22;51605;47.040;15.294;2022-11-20T05:13:59;22.20;56.50
65038;DHT22;51605;47.040;15.294;2022-11-20T05:16:25;22.20;56.40
65038;DHT22;51605;47.040;15.294;2022-11-20T05:18:51;22.20;56.40
65038;DHT22;51605;47.040;15.294;2022-11-20T05:21:17;22.20;56.40
65038;DHT22;51605;47.040;15.294;2022-11-20T05:23:43;22.20;56.30
65038;DHT22;51605;47.040;15.294;2022-11-20T05:26:13;22.20;56.40
65038;DHT22;51605;47.040;15.294;2022-11-20T05:28:39;22.20;56.20
65038;DHT22;51605;47.040;15.294;2022-11-20T05:31:08;22.20;56.30
65038;DHT22;51605;47.040;15.294;2022-11-20T05:33:34;22.20;56.30
65038;DHT22;51605;47.040;15.294;2022-11-20T05:36:01;22.20;56.30
65038;DHT22;51605;47.040;15.294;2022-11-20T05:38:26;22.20;56.30
65038;DHT22;51605;47.040;15.294;2022-11-20T05:40:52;22.20;56.30
65038;DHT22;51605;47.040;15.294;2022-11-20T05:43:17;22.20;56.20
65038;DHT22;51605;47.040;15.294;2022-11-20T05:45:51;22.20;56.20
65038;DHT22;51605;47.040;15.294;2022-11-20T05:48:16;22.20;56.30
65038;DHT22;51605;47.040;15.294;2022-11-20T05:50:41;22.20;56.20
65038;DHT22;51605;47.040;15.294;2022-11-20T05:53:07;22.20;56.20
65038;DHT22;51605;47.040;15.294;2022-11-20T05:55:32;22.20;56.20
65038;DHT22;51605;47.040;15.294;2022-11-20T05:57:58;22.20;56.10
65038;DHT22;51605;47.040;15.294;2022-11-20T06:00:23;22.20;56.00
65038;DHT22;51605;47.040;15.294;2022-11-20T06:02:49;22.20;56.00
65038;DHT22;51605;47.040;15.294;2022-11-20T06:05:14;22.20;56.00
65038;DHT22;51605;47.040;15.294;2022-11-20T06:07:40;22.20;56.00
65038;DHT22;51605;47.040;15.294;2022-11-20T06:10:05;22.20;57.00
65038;DHT22;51605;47.040;15.294;2022-11-20T06:12:32;22.20;56.00
65038;DHT22;51605;47.040;15.294;2022-11-20T06:14:58;22.20;56.00
65038;DHT22;51605;47.040;15.294;2022-11-20T06:17:24;22.20;56.00
65038;DHT22;51605;47.040;15.294;2022-11-20T06:19:49;22.20;55.90
65038;DHT22;51605;47.040;15.294;2022-11-20T06:22:15;22.20;55.90
65038;DHT22;51605;47.040;15.294;2022-11-20T06:24:40;22.20;55.90
65038;DHT22;51605;47.040;15.294;2022-11-20T06:27:06;22.20;55.90
65038;DHT22;51605;47.040;15.294;2022-11-20T06:29:31;22.20;55.80
65038;DHT22;51605;47.040;15.294;2022-11-20T06:31:56;22.20;55.90
65038;DHT22;51605;47.040;15.294;2022-11-20T06:34:22;22.20;55.90
65038;DHT22;51605;47.040;15.294;2022-11-20T06:36:47;22.20;55.90
65038;DHT22;51605;47.040;15.294;2022-11-20T06:39:13;22.20;55.90
65038;DHT22;51605;47.040;15.294;2022-11-20T06:41:38;22.20;55.80
65038;DHT22;51605;47.040;15.294;2022-11-20T06:44:04;22.20;56.80
65038;DHT22;51605;47.040;15.294;2022-11-20T06:46:30;22.20;55.80
65038;DHT22;51605;47.040;15.294;2022-11-20T06:48:56;22.20;55.90
65038;DHT22;51605;47.040;15.294;2022-11-20T06:51:22;22.20;55.90
65038;DHT22;51605;47.040;15.294;2022-11-20T06:53:47;22.20;55.80
65038;DHT22;51605;47.040;15.294;2022-11-20T06:56:13;22.20;55.90
65038;DHT22;51605;47.040;15.294;2022-11-20T06:58:39;22.20;55.90
65038;DHT22;51605;47.040;15.294;2022-11-20T07:01:06;22.20;56.00
65038;DHT22;51605;47.040;15.294;2022-11-20T07:03:32;22.20;56.20
65038;DHT22;51605;47.040;15.294;2022-11-20T07:05:58;22.20;56.20
65038;DHT22;51605;47.040;15.294;2022-11-20T07:08:25;22.20;56.20
65038;DHT22;51605;47.040;15.294;2022-11-20T07:10:50;22.20;56.40
65038;DHT22;51605;47.040;15.294;2022-11-20T07:13:16;22.10;56.40
65038;DHT22;51605;47.040;15.294;2022-11-20T07:15:41;22.20;56.40
65038;DHT22;51605;47.040;15.294;2022-11-20T07:18:07;22.20;56.40
65038;DHT22;51605;47.040;15.294;2022-11-20T07:20:32;22.20;56.30
65038;DHT22;51605;47.040;15.294;2022-11-20T07:22:58;22.20;56.30
65038;DHT22;51605;47.040;15.294;2022-11-20T07:25:24;22.20;56.30
65038;DHT22;51605;47.040;15.294;2022-11-20T07:27:50;22.20;56.40
65038;DHT22;51605;47.040;15.294;2022-11-20T07:30:16;22.20;56.40
65038;DHT22;51605;47.040;15.294;2022-11-20T07:32:41;22.20;56.50
65038;DHT22;51605;47.040;15.294;2022-11-20T07:35:07;22.20;56.60
65038;DHT22;51605;47.040;15.294;2022-11-20T07:37:36;22.20;56.50
65038;DHT22;51605;47.040;15.294;2022-11-20T07:40:01;22.20;56.60
65038;DHT22;51605;47.040;15.294;2022-11-20T07:42:27;22.20;56.50
65038;DHT22;51605;47.040;15.294;2022-11-20T07:44:53;22.20;56.60
65038;DHT22;51605;47.040;15.294;2022-11-20T07:47:18;22.20;56.60
65038;DHT22;51605;47.040;15.294;2022-11-20T07:49:44;22.30;56.70
65038;DHT22;51605;47.040;15.294;2022-11-20T07:52:09;22.20;56.70
65038;DHT22;51605;47.040;15.294;2022-11-20T07:54:34;22.20;56.70
65038;DHT22;51605;47.040;15.294;2022-11-20T07:57:00;22.20;56.70
65038;DHT22;51605;47.040;15.294;2022-11-20T07:59:25;22.20;56.70
65038;DHT22;51605;47.040;15.294;2022-11-20T08:01:51;22.20;56.80
65038;DHT22;51605;47.040;15.294;2022-11-20T08:04:16;22.20;56.80
65038;DHT22;51605;47.040;15.294;2022-11-20T08:06:42;22.20;56.70
65038;DHT22;51605;47.040;15.294;2022-11-20T08:09:08;22.20;56.80
65038;DHT22;51605;47.040;15.294;2022-11-20T08:11:33;22.20;56.80
65038;DHT22;51605;47.040;15.294;2022-11-20T08:14:17;22.20;56.80
65038;DHT22;51605;47.040;15.294;2022-11-20T08:16:44;22.20;56.80
65038;DHT22;51605;47.040;15.294;2022-11-20T08:19:10;22.20;56.80
65038;DHT22;51605;47.040;15.294;2022-11-20T08:21:36;22.20;56.80
65038;DHT22;51605;47.040;15.294;2022-11-20T08:24:02;22.20;56.70
65038;DHT22;51605;47.040;15.294;2022-11-20T08:26:27;22.10;56.90
65038;DHT22;51605;47.040;15.294;2022-11-20T08:28:53;22.10;56.90
65038;DHT22;51605;47.040;15.294;2022-11-20T08:31:19;22.10;57.00
65038;DHT22;51605;47.040;15.294;2022-11-20T08:33:45;22.00;57.00
65038;DHT22;51605;47.040;15.294;2022-11-20T08:36:10;22.00;55.70
65038;DHT22;51605;47.040;15.294;2022-11-20T08:38:36;22.00;55.40
65038;DHT22;51605;47.040;15.294;2022-11-20T08:41:02;22.00;55.30
65038;DHT22;51605;47.040;15.294;2022-11-20T08:43:46;22.10;56.30
65038;DHT22;51605;47.040;15.294;2022-11-20T08:46:12;22.10;55.20
65038;DHT22;51605;47.040;15.294;2022-11-20T08:48:38;22.10;55.20
65038;DHT22;51605;47.040;15.294;2022-11-20T08:51:03;22.20;55.40
65038;DHT22;51605;47.040;15.294;2022-11-20T08:53:29;22.20;55.30
65038;DHT22;51605;47.040;15.294;2022-11-20T08:55:56;22.20;55.40
65038;DHT22;51605;47.040;15.294;2022-11-20T08:58:21;22.20;55.50
65038;DHT22;51605;47.040;15.294;2022-11-20T09:00:47;22.20;56.50
65038;DHT22;51605;47.040;15.294;2022-11-20T09:03:12;22.20;55.50
65038;DHT22;51605;47.040;15.294;2022-11-20T09:05:38;22.20;55.60
65038;DHT22;51605;47.040;15.294;2022-11-20T09:08:04;22.20;55.80
65038;DHT22;51605;47.040;15.294;2022-11-20T09:10:30;22.20;55.80
65038;DHT22;51605;47.040;15.294;2022-11-20T09:12:55;22.20;55.90
65038;DHT22;51605;47.040;15.294;2022-11-20T09:15:21;22.10;56.40
65038;DHT22;51605;47.040;15.294;2022-11-20T09:17:53;22.10;56.80
65038;DHT22;51605;47.040;15.294;2022-11-20T09:20:18;22.10;57.30
65038;DHT22;51605;47.040;15.294;2022-11-20T09:22:44;22.10;57.80
65038;DHT22;51605;47.040;15.294;2022-11-20T09:25:09;22.20;57.80
65038;DHT22;51605;47.040;15.294;2022-11-20T09:27:35;22.30;58.40
65038;DHT22;51605;47.040;15.294;2022-11-20T09:30:01;22.30;57.90
65038;DHT22;51605;47.040;15.294;2022-11-20T09:32:26;22.30;58.00
65038;DHT22;51605;47.040;15.294;2022-11-20T09:34:52;22.30;58.70
65038;DHT22;51605;47.040;15.294;2022-11-20T09:37:17;22.30;59.20
65038;DHT22;51605;47.040;15.294;2022-11-20T09:39:43;22.40;59.60
65038;DHT22;51605;47.040;15.294;2022-11-20T09:45:30;22.40;59.70
65038;DHT22;51605;47.040;15.294;2022-11-20T09:50:33;22.40;59.30
65038;DHT22;51605;47.040;15.294;2022-11-20T09:55:44;22.40;57.70
65038;DHT22;51605;47.040;15.294;2022-11-20T09:58:16;22.40;57.60
65038;DHT22;51605;47.040;15.294;2022-11-20T10:00:46;22.40;57.60
65038;DHT22;51605;47.040;15.294;2022-11-20T10:03:26;22.40;57.60
65038;DHT22;51605;47.040;15.294;2022-11-20T10:05:56;22.30;57.40
65038;DHT22;51605;47.040;15.294;2022-11-20T10:08:28;22.30;57.50
65038;DHT22;51605;47.040;15.294;2022-11-20T10:13:35;22.30;57.40
65038;DHT22;51605;47.040;15.294;2022-11-20T10:21:57;22.30;57.30
65038;DHT22;51605;47.040;15.294;2022-11-20T10:26:31;22.30;57.40
65038;DHT22;51605;47.040;15.294;2022-11-20T10:31:31;22.20;57.50
65038;DHT22;51605;47.040;15.294;2022-11-20T10:33:58;22.30;57.50
65038;DHT22;51605;47.040;15.294;2022-11-20T10:36:27;22.20;57.40
65038;DHT22;51605;47.040;15.294;2022-11-20T10:39:01;22.20;57.50
65038;DHT22;51605;47.040;15.294;2022-11-20T10:41:30;22.20;57.50
65038;DHT22;51605;47.040;15.294;2022-11-20T10:44:05;22.20;57.50
65038;DHT22;51605;47.040;15.294;2022-11-20T10:47:04;22.20;57.50
65038;DHT22;51605;47.040;15.294;2022-11-20T10:49:22;22.20;57.50
65038;DHT22;51605;47.040;15.294;2022-11-20T10:57:05;22.20;57.50
65038;DHT22;51605;47.040;15.294;2022-11-20T11:02:12;22.20;57.40
65038;DHT22;51605;47.040;15.294;2022-11-20T11:05:17;22.30;57.40
65038;DHT22;51605;47.040;15.294;2022-11-20T11:07:34;22.30;57.40
65038;DHT22;51605;47.040;15.294;2022-11-20T11:10:00;22.30;57.40
65038;DHT22;51605;47.040;15.294;2022-11-20T11:12:27;22.30;57.40
65038;DHT22;51605;47.040;15.294;2022-11-20T11:14:54;22.30;57.40
65038;DHT22;51605;47.040;15.294;2022-11-20T11:17:27;22.20;57.40
65038;DHT22;51605;47.040;15.294;2022-11-20T11:20:03;22.20;57.40
65038;DHT22;51605;47.040;15.294;2022-11-20T11:22:32;22.20;57.40
65038;DHT22;51605;47.040;15.294;2022-11-20T11:24:58;22.30;57.40
65038;DHT22;51605;47.040;15.294;2022-11-20T11:27:24;22.20;57.30
65038;DHT22;51605;47.040;15.294;2022-11-20T11:29:50;22.30;57.40
65038;DHT22;51605;47.040;15.294;2022-11-20T11:32:26;22.30;57.40
65038;DHT22;51605;47.040;15.294;2022-11-20T11:34:58;22.20;57.40
65038;DHT22;51605;47.040;15.294;2022-11-20T11:37:24;22.20;57.50
65038;DHT22;51605;47.040;15.294;2022-11-20T11:39:52;22.20;57.50
65038;DHT22;51605;47.040;15.294;2022-11-20T11:42:18;22.20;57.50
65038;DHT22;51605;47.040;15.294;2022-11-20T11:44:45;22.20;57.50
65038;DHT22;51605;47.040;15.294;2022-11-20T11:47:51;22.20;57.60
65038;DHT22;51605;47.040;15.294;2022-11-20T11:55:19;22.20;57.60
65038;DHT22;51605;47.040;15.294;2022-11-20T11:57:49;22.20;57.70
65038;DHT22;51605;47.040;15.294;2022-11-20T12:00:20;22.30;57.60
65038;DHT22;51605;47.040;15.294;2022-11-20T12:07:41;22.20;57.70
65038;DHT22;51605;47.040;15.294;2022-11-20T12:10:19;22.20;57.60
65038;DHT22;51605;47.040;15.294;2022-11-20T12:12:46;22.20;57.60
65038;DHT22;51605;47.040;15.294;2022-11-20T12:15:22;22.20;57.70
65038;DHT22;51605;47.040;15.294;2022-11-20T12:17:50;22.20;57.70
65038;DHT22;51605;47.040;15.294;2022-11-20T12:20:16;22.20;57.80
65038;DHT22;51605;47.040;15.294;2022-11-20T12:25:11;22.20;57.80
65038;DHT22;51605;47.040;15.294;2022-11-20T12:27:43;22.20;57.80
65038;DHT22;51605;47.040;15.294;2022-11-20T12:30:10;22.20;57.80
65038;DHT22;51605;47.040;15.294;2022-11-20T12:43:21;22.20;57.80
65038;DHT22;51605;47.040;15.294;2022-11-20T12:48:37;22.20;57.80
65038;DHT22;51605;47.040;15.294;2022-11-20T12:51:21;22.20;57.80
65038;DHT22;51605;47.040;15.294;2022-11-20T12:58:58;22.20;57.80
65038;DHT22;51605;47.040;15.294;2022-11-20T13:01:32;22.20;58.30
65038;DHT22;51605;47.040;15.294;2022-11-20T13:06:52;22.20;58.70
65038;DHT22;51605;47.040;15.294;2022-11-20T13:09:18;22.30;58.10
65038;DHT22;51605;47.040;15.294;2022-11-20T13:11:48;22.20;57.80
65038;DHT22;51605;47.040;15.294;2022-11-20T13:17:30;22.20;57.60
65038;DHT22;51605;47.040;15.294;2022-11-20T13:19:35;22.20;57.50
65038;DHT22;51605;47.040;15.294;2022-11-20T13:22:01;22.20;57.40
65038;DHT22;51605;47.040;15.294;2022-11-20T13:24:27;22.20;57.40
65038;DHT22;51605;47.040;15.294;2022-11-20T13:27:05;22.20;57.30
65038;DHT22;51605;47.040;15.294;2022-11-20T13:29:43;22.20;57.30
65038;DHT22;51605;47.040;15.294;2022-11-20T13:34:37;22.20;57.20
65038;DHT22;51605;47.040;15.294;2022-11-20T13:37:03;22.20;57.20
65038;DHT22;51605;47.040;15.294;2022-11-20T13:39:33;22.20;57.20
65038;DHT22;51605;47.040;15.294;2022-11-20T13:42:00;22.20;57.10
65038;DHT22;51605;47.040;15.294;2022-11-20T13:46:54;22.20;57.30
65038;DHT22;51605;47.040;15.294;2022-11-20T13:49:27;22.20;57.80
65038;DHT22;51605;47.040;15.294;2022-11-20T13:52:08;22.20;58.80
65038;DHT22;51605;47.040;15.294;2022-11-20T14:02:16;22.20;59.40
65038;DHT22;51605;47.040;15.294;2022-11-20T14:04:42;22.20;59.40
65038;DHT22;51605;47.040;15.294;2022-11-20T14:07:09;22.20;59.40
65038;DHT22;51605;47.040;15.294;2022-11-20T14:09:35;22.20;59.50
65038;DHT22;51605;47.040;15.294;2022-11-20T14:12:01;22.20;59.40
65038;DHT22;51605;47.040;15.294;2022-11-20T14:14:27;22.20;59.40
65038;DHT22;51605;47.040;15.294;2022-11-20T14:17:04;22.20;59.30
65038;DHT22;51605;47.040;15.294;2022-11-20T14:19:30;22.20;58.90
65038;DHT22;51605;47.040;15.294;2022-11-20T14:24:40;22.20;59.30
65038;DHT22;51605;47.040;15.294;2022-11-20T14:27:10;22.30;59.40
65038;DHT22;51605;47.040;15.294;2022-11-20T14:29:37;22.40;59.30
65038;DHT22;51605;47.040;15.294;2022-11-20T14:32:03;22.40;58.90
65038;DHT22;51605;47.040;15.294;2022-11-20T14:34:30;22.50;58.70
65038;DHT22;51605;47.040;15.294;2022-11-20T14:36:57;22.60;58.60
65038;DHT22;51605;47.040;15.294;2022-11-20T14:39:25;22.70;58.50
65038;DHT22;51605;47.040;15.294;2022-11-20T14:41:52;22.70;58.40
65038;DHT22;51605;47.040;15.294;2022-11-20T14:44:26;22.80;58.30
65038;DHT22;51605;47.040;15.294;2022-11-20T14:46:52;22.80;58.20
65038;DHT22;51605;47.040;15.294;2022-11-20T14:49:18;22.80;58.20
65038;DHT22;51605;47.040;15.294;2022-11-20T14:51:43;22.80;58.20
65038;DHT22;51605;47.040;15.294;2022-11-20T14:54:17;22.80;58.20
65038;DHT22;51605;47.040;15.294;2022-11-20T14:59:24;22.60;58.30
65038;DHT22;51605;47.040;15.294;2022-11-20T15:02:00;22.60;58.50
65038;DHT22;51605;47.040;15.294;2022-11-20T15:04:26;22.50;58.60
65038;DHT22;51605;47.040;15.294;2022-11-20T15:06:53;22.50;58.70
65038;DHT22;51605;47.040;15.294;2022-11-20T15:09:19;22.40;58.80
65038;DHT22;51605;47.040;15.294;2022-11-20T15:11:55;22.40;58.90
65038;DHT22;51605;47.040;15.294;2022-11-20T15:14:21;22.40;59.90
65038;DHT22;51605;47.040;15.294;2022-11-20T15:16:46;22.40;59.10
65038;DHT22;51605;47.040;15.294;2022-11-20T15:19:16;22.30;59.00
65038;DHT22;51605;47.040;15.294;2022-11-20T15:21:42;22.30;59.10
65038;DHT22;51605;47.040;15.294;2022-11-20T15:24:08;22.30;59.00
65038;DHT22;51605;47.040;15.294;2022-11-20T15:26:34;22.30;59.00
65038;DHT22;51605;47.040;15.294;2022-11-20T15:29:00;22.30;58.80
65038;DHT22;51605;47.040;15.294;2022-11-20T15:31:25;22.30;58.90
65038;DHT22;51605;47.040;15.294;2022-11-20T15:33:51;22.30;59.00
65038;DHT22;51605;47.040;15.294;2022-11-20T15:36:16;22.30;59.00
65038;DHT22;51605;47.040;15.294;2022-11-20T15:38:42;22.30;59.10
65038;DHT22;51605;47.040;15.294;2022-11-20T15:41:08;22.30;59.20
65038;DHT22;51605;47.040;15.294;2022-11-20T15:43:33;22.40;59.10
65038;DHT22;51605;47.040;15.294;2022-11-20T15:46:03;22.50;59.00
65038;DHT22;51605;47.040;15.294;2022-11-20T15:48:31;22.60;58.80
65038;DHT22;51605;47.040;15.294;2022-11-20T15:53:35;22.60;58.70
65038;DHT22;51605;47.040;15.294;2022-11-20T15:56:00;22.60;59.10
65038;DHT22;51605;47.040;15.294;2022-11-20T15:58:26;22.50;59.60
65038;DHT22;51605;47.040;15.294;2022-11-20T16:00:52;22.50;59.90
65038;DHT22;51605;47.040;15.294;2022-11-20T16:03:18;22.50;60.00
65038;DHT22;51605;47.040;15.294;2022-11-20T16:05:43;22.50;60.00
65038;DHT22;51605;47.040;15.294;2022-11-20T16:08:09;22.50;59.90
65038;DHT22;51605;47.040;15.294;2022-11-20T16:10:35;22.50;60.10
65038;DHT22;51605;47.040;15.294;2022-11-20T16:13:01;22.40;60.20
65038;DHT22;51605;47.040;15.294;2022-11-20T16:15:45;22.40;60.30
65038;DHT22;51605;47.040;15.294;2022-11-20T16:18:16;22.40;60.60
65038;DHT22;51605;47.040;15.294;2022-11-20T16:20:42;22.40;60.60
65038;DHT22;51605;47.040;15.294;2022-11-20T16:23:08;22.40;60.60
65038;DHT22;51605;47.040;15.294;2022-11-20T16:25:33;22.40;60.70
65038;DHT22;51605;47.040;15.294;2022-11-20T16:27:59;22.30;60.20
65038;DHT22;51605;47.040;15.294;2022-11-20T16:30:24;22.30;60.20
65038;DHT22;51605;47.040;15.294;2022-11-20T16:32:50;22.30;59.90
65038;DHT22;51605;47.040;15.294;2022-11-20T16:35:15;22.30;59.60
65038;DHT22;51605;47.040;15.294;2022-11-20T16:37:41;22.30;59.30
65038;DHT22;51605;47.040;15.294;2022-11-20T16:40:08;22.30;60.00
65038;DHT22;51605;47.040;15.294;2022-11-20T16:42:35;22.30;58.90
65038;DHT22;51605;47.040;15.294;2022-11-20T16:45:01;22.30;58.80